Ride Results

Wingello Forest (23-05-2015)
Ride distance: 80.0 km

Outcomes - Wingello Forest (23-05-2015)
Division No. of Entries Retired / DNE Completed Withdrawn Ineligible V/O Percentage Completed
HW 25 - 14 2 - 9 56.00%
MW 38 - 28 5 1 4 73.68%
LW 22 - 17 1 2 2 77.27%
JN 6 - 6 - - - 100.00%
Totals 91 - 65 8 3 15 71.43%
Results - Wingello Forest (23-05-2015)
No. Rider Horse Place Time Leg Speeds Total
Km/Hr
H/R bpm
Heavyweight
502 Andrew Bailey Bullio Solute 1 (BC) 4:35:00 17.1, 17.8 17.45 34, 43, 48 (Avg:45)
501 John Robertson Karabil Asis 1 4:35:00 18.9, 16.0 17.45 33, 52, 48 (Avg:50)
527 Heidi Wade Pevensey Prosecco 3 5:37:00 15.1, 13.3 14.24 40, 43, 41 (Avg:42)
522 Robert Catlin Copperkahn Tiara 4 5:45:00 13.7, 14.0 13.91 30, 36, 41 (Avg:38)
510 Steve Brooks A'landell Pirate 5 5:47:00 14.6, 13.0 13.83 36, 44, 47 (Avg:45)
525 Jack Johnson Sharahd Namaree 6 5:50:00 12.7, 14.9 13.71 38, 42, 51 (Avg:46)
526 Alan West Tollarta 7 6:09:00 13.9, 12.0 13.01 31, 49, 41 (Avg:45)
500 Jolene Cole Baribo 8 6:14:00 13.5, 12.1 12.83 44, 48, 56 (Avg:52)
518 Jasmine Thompson Shagrir's Gift 9 6:34:00 13.1, 11.2 12.18 42, 52, 51 (Avg:51)
503 John Dawson Jon De Le Vismad 10 6:46:00 13.0, 10.7 11.82 30, 39, 46 (Avg:42)
504 Peter Brownlie Jon De Le Riffle 11 8:08:00 9.1, 10.7 9.84 33, 46, 46 (Avg:46)
506 Belinda Hopley Girilambone Sorcerer 11 8:08:00 11.1, 8.7 9.84 30, 42, 50 (Avg:46)
346 Virginia Blain Suncrest Diva 13 8:31:00 9.8, 8.9 9.39 45, 45, 59 (Avg:52)
517 Sue Warren Lilonda Sharjah 14 8:36:00 9.7, 8.8 9.30 32, 47, 50 (Avg:48)
524 Jessica Dastani Cocoa Ace of Swords Heart Rate L2 0:00:00 13.4, 12.1 - 28, 43, 72 (Avg:57)
350 Evan Drain-Shepheard Prince Ibn Alii Lame L2 0:00:00 20.4, 17.0 - 36, 48, 58 (Avg:53)
348 Ian Dreghorn Ausden Nile Prins Lame L2 0:00:00 12.4, 9.7 - 30, 48, 49 (Avg:48)
347 Marty Gregson Burren-dah Gladiator Heart Rate L2 0:00:00 13.0, 13.8 - 40, 43, 68 (Avg:55)
505 Cris Magnabosco Magna Contessa Lame L2 0:00:00 20.4, 17.0 - 36, 45, 51 (Avg:48)
349 Sarah Pollard-Williams Kintamani Silver Fox Lame L2 0:00:00 12.2, 10.2 - 34, 42, 48 (Avg:45)
507 Allan Caslick A'Landell Soul Lame L1 0:00:00 18.0 - 28, 42, 52 (Avg:47)
523 Tracy Haack E.L. Withdrawn L1 0:00:00 - - 31, 53 (Avg:53)
521 Peter Norman Mountain Ash Tabasco Lame L1 0:00:00 12.4 - 40, 43 (Avg:43)
509 Gavin Peacock Eclipse Lame L1 0:00:00 13.7 - 31, 44 (Avg:44)
508 Heather Nagle A'Landell Prestige Withdrawn P/R 0:00:00 - - 46
Middleweight
436 Cathy Walton Salam Zahbeel 1 4:49:00 16.6, 16.5 16.61 40, 45, 46 (Avg:45)
430 Gertraud Norton Scarlet Oaks Amica 2 4:55:00 17.3, 15.1 16.27 38, 45, 54 (Avg:49)
438 Talea Hasko-Stewart Brookleigh Shiralee 3 (BC) 4:56:00 16.6, 15.7 16.22 29, 39, 42 (Avg:40)
427 Anita Ashby Lentara Park Heather 4 5:06:00 16.4, 14.9 15.69 40, 49, 47 (Avg:48)
407 Ian Curtis Blake's Heaven Summer Wind 4 5:06:00 16.4, 14.9 15.69 44, 40, 47 (Avg:43)
431 Clare Feary Die Kinder Junrei 6 5:45:00 13.7, 14.0 13.91 36, 45, 54 (Avg:49)
445 Jennifer Annetts Castlebar Guardian 7 5:52:00 13.5, 13.7 13.64 35, 41, 47 (Avg:44)
447 Linda Tanian Castlebar Cadabra 7 5:52:00 13.5, 13.7 13.64 28, 40, 55 (Avg:47)
446 Ellen Vine Castlebar Corsair 7 5:52:00 13.5, 13.7 13.64 29, 41, 47 (Avg:44)
439 Erica Allan Kaminya 10 5:58:00 14.2, 12.5 13.41 34, 44, 54 (Avg:49)
440 Sharyn Coulston Castlebar Belair 11 6:03:00 12.4, 14.1 13.22 30, 39, 42 (Avg:40)
422 Jo Davis Immortelle 12 6:05:00 13.9, 12.3 13.15 32, 42, 48 (Avg:45)
404 Fiona Meller Malu Vale Embers 13 6:10:00 13.8, 12.1 12.97 30, 37, 42 (Avg:39)
424 Ian Burns Miss B Havin 14 6:11:00 13.7, 12.1 12.94 34, 48, 53 (Avg:50)
403 Peter Bice Georgie Girl 15 6:14:00 13.8, 11.8 12.83 39, 48, 44 (Avg:46)
449 Brad Dillon Banfield Reign 16 6:20:00 13.0, 12.1 12.63 44, 50, 55 (Avg:52)
448 Christopher Clarke Hopetoun Belle 17 6:31:00 12.7, 11.7 12.28 44, 45, 48 (Avg:46)
421 Kate Gibson AM Reigning Bianca 18 6:32:00 11.9, 12.5 12.24 34, 44, 51 (Avg:47)
405 Carol Major Bradali Najmul Fi Samar 19 6:33:00 12.6, 11.7 12.21 33, 43, 50 (Avg:46)
434 Lana Finnane M.A. Hasaab 20 6:43:00 12.7, 11.0 11.91 42, 38, 50 (Avg:44)
433 Emily Streckfuss Future Dream Dodger 20 6:43:00 12.7, 11.0 11.91 37, 42, 46 (Avg:44)
428 Johanne Gardiner Coolinda Park Xzinda-Ella 22 6:45:00 12.4, 11.2 11.85 36, 39, 40 (Avg:39)
437 Laurie Taylor Forest Dale Xasperation 23 6:48:00 12.2, 11.2 11.76 31, 43, 55 (Avg:49)
10 Lauren Stevenson Wantley Kaliph 24 7:12:00 10.4, 11.9 11.11 35, 40, 46 (Avg:43)
411 Tracey Morley Hampton Park Jack 25 7:27:00 11.4, 10.0 10.74 38, 39, 43 (Avg:41)
432 Rachel Reid Franshar Park K Shar 25 7:27:00 11.8, 9.7 10.74 36, 49, 51 (Avg:50)
425 Rowena Robinson Karumba Nazrani 27 7:52:00 9.4, 11.0 10.17 34, 43, 48 (Avg:45)
426 Gail Fisher Warren Park Allira 28 8:36:00 9.7, 8.8 9.30 31, 49, 53 (Avg:51)
410 Leanne Hickson Cruz Withdrawn L2 0:00:00 - - 27, 45, 48 (Avg:46)
400 Leisa Neal Razorback Fire Wing Lame L2 0:00:00 9.8, 18.9 - 28, 42, 48 (Avg:45)
401 Scott Peters Stoodleigh Colonial Boy Lame L2 0:00:00 21.1, 16.5 - 36, 45, 43 (Avg:44)
402 Annette Bailey Harmere Katif Withdrawn L1 0:00:00 - - 38, 44 (Avg:44)
9 Katrina Bodewes Booramby Silver Elk Withdrawn L1 0:00:00 - - 36, 54 (Avg:54)
409 Madeline Cotton Castlebar Glen Amber Heart Rate L1 0:00:00 10.4 - 38, 65 (Avg:65)
435 Ben Hudson Littlebanks Antwonett Heart Rate L1 0:00:00 20.9 - 29, 65 (Avg:65)
408 Garry Matthews Scooter Withdrawn L1 0:00:00 - - 37, 50 (Avg:50)
423 Christine Smithers Corrigan Withdrawn L1 0:00:00 - - 36, 45 (Avg:45)
406 Michelle George Yinbilliko Sameera Rukan 0:00:00 - - -
Lightweight
325 Adeline Gibson Blake's Heaven Venus 1 (BC) 4:56:00 16.6, 15.7 16.22 30, 49, 50 (Avg:49)
329 Vetea Facchini Trigger 2 5:37:00 15.1, 13.3 14.24 30, 32, 45 (Avg:38)
331 Shannon Hill Burren-dah Narla 3 5:58:00 13.0, 13.8 13.41 28, 48, 49 (Avg:48)
301 Victoria Bice The Byzantine Diamonds 4 6:14:00 13.8, 11.8 12.83 34, 43, 53 (Avg:48)
326 Elodie LeLabourier Blake's Heaven Angelico 5 6:15:00 13.4, 12.1 12.80 38, 47, 50 (Avg:48)
413 Emma Broome Raymar Aisha 6 6:20:00 12.9, 12.3 12.63 31, 51, 55 (Avg:53)
319 Jen Clingly Omani City Smoke 6 6:20:00 13.4, 11.8 12.63 38, 42, 48 (Avg:45)
320 Carol Layton Omani Mr Sqiggle 6 6:20:00 13.4, 11.8 12.63 38, 41, 50 (Avg:45)
304 Jenny Berg Oso Edith 9 6:28:00 12.1, 12.6 12.37 40, 42, 44 (Avg:43)
328 Samantha Clark Oso Zoltan 10 6:31:00 12.0, 12.5 12.28 34, 44, 50 (Avg:47)
317 Sorsha Stuart-Rokvic Al-Marah Ellice 11 6:32:00 11.9, 12.5 12.24 35, 45, 52 (Avg:48)
303 Sue Todd Shakari Bear 12 6:33:00 12.6, 11.7 12.21 36, 45, 51 (Avg:48)
321 Melissa McCoullough Forbes View Sienna 13 6:45:00 12.4, 11.2 11.85 36, 42, 52 (Avg:47)
330 Mia Bodewes Booramby Jacob 14 7:13:00 11.4, 10.7 11.09 32, 35, 50 (Avg:42)
316 Sally Lowe Heylowe Disco 15 7:14:00 12.1, 10.0 11.06 36, 48, 56 (Avg:52)
324 Maxine McArthur Blake's Heaven Dubonnet 15 7:14:00 10.4, 11.8 11.06 39, 39, 42 (Avg:40)
322 Vicki Mathew Cearadale Hanaani 17 8:10:00 9.9, 9.5 9.80 38, 42, 59 (Avg:50)
323 Shelly Ison Lulu Lame L2 0:00:00 12.4, 9.7 - 38, 44, 49 (Avg:46)
300 John Dawson Duce 0:00:00 13.0 - 31, 43 (Avg:43)
327 Cody Holloway M.A. Mashkell Withdrawn L1 0:00:00 - - 32, 43 (Avg:43)
302 Rosemairie Miles Destiny Lame L1 0:00:00 13.1 - 35, 51 (Avg:51)
318 Julie Brooks Aloha Byshara 0:00:00 - - -
Junior
206 Olivia De Gruchy Argon 1 6:15:00 13.4, 12.1 12.80 31, 38, 47 (Avg:42)
241 Harrison Berg Aloha Mamma Mia 2 (BC) 6:28:00 12.1, 12.6 12.37 34, 43, 45 (Avg:44)
205 Josephine Jansen Seraphic Park Oliver Twist 3 6:43:00 12.7, 11.0 11.91 26, 36, 45 (Avg:40)
207 Celia Hodgson Blake's Heaven Carousel 4 7:12:00 10.4, 11.9 11.11 30, 36, 42 (Avg:39)
191 Gabrielle Worth Douglas 5 7:28:00 10.4, 10.9 10.71 34, 40, 44 (Avg:42)
208 Levi Robinson Karumba Beamish 6 7:52:00 9.4, 11.0 10.17 32, 45, 45 (Avg:45)